Aérodrome :
LOGIN :

S'inscrire | Disclaimer

   EN    FR    IT 

 










Légende :    VFR   VFR Marginal   IFR   IFR Intensif   IFR Très Intensif
Visi : 
Plafond : 
>= 8 km
>= 3000ft
5 à 8 km
1000 à 3000 ft
1500m à 5 km
500 à 1000 ft
800 à 1500m
200 à 500 ft
< 800m
< 200 ft
Symboles :   Orages  Brouillard  Fortes neiges  Fortes précipitations  Vent > 20 kt
SIGMETs :   Divers  Orages  Givrage  Turbulence  Onde Orograph.  Cendres Volcan.






- Altitude de l'aérodrome : 306 ft
- Code IATA : EMA


EGNX - Nottingham East Midlands

DERNIER METAR :
  • 120520Z 23015KT 9999 FEW038 03/01 Q0995

METARs EXPIRÉS :
  • 120450Z 23014KT 9999 SCT030 03/01 Q0995
  • 120420Z 23013KT 9999 FEW015 SCT030 03/02 Q0995
  • 120350Z 23014KT 9999 FEW030 04/02 Q0996
  • 120320Z 24012KT 9999 FEW035 04/02 Q0996
  • 120250Z 23012KT 9999 FEW020 SCT034 03/02 Q0996

TAF TAF EGNX
Valide du 12 à 06h jusqu'au 13 à 06h UTC


120504Z 1206/1306 24014KT 9999 FEW012 SCT030
BECMG 1206/1209 25020G32KT
PROB30
TEMPO 1206/1208 7000 SHRA
TEMPO 1208/1213 6000 RA BKN012
PROB30
TEMPO 1208/1213 4000 +RA BKN009
BECMG 1211/1214 30015KT
ATIS : +44 1332 852 852 (ext 3201)



MET'MAP, la Météo Aéronautique d'un coup d'oeil ! - Copyright ORBIFLY Décembre 2007 - Disclaimer

ORBIFLY MET'MAP TEAM :

Programmation & Développement : Alexandra Zaïnal
Conception & Développement : Baudouin d'Aumeries
Co-Programmation & Développement : Marc-Olivier Méhu
Soutien technique & logistique : Manuel Goepfert

Contact : metmap@orbifly.com




SOURCES & CREDITS :

   NOAA